Time;durP1;ratioP1;P1;durP2;ratioP2;P2;SDS_P1;SDS_P2;PMS_P1;PMS_P2;Temp;Humidity;BMP_temperature;BMP_pressure;BME280_temperature;BME280_humidity;BME280_pressure;Samples;Min_cycle;Max_cycle;Signal;HPM_P1;HPM_P2
2020/01/19 00:00:08;;;;;;;12.4;9.299999;;;;;;;1.38;92.36328;96176.73;;;;
2020/01/19 00:02:36;;;;;;;12.4;9.299999;;;;;;;1.38;92.36328;96176.73;;;;
2020/01/19 00:03:40;;;;;;;12.4;9.299999;;;;;;;1.38;92.36328;96176.73;;;;
2020/01/19 00:13:30;;;;;;;12.1;9.200001;;;;;;;1.34;92.21973;96174.05;;;;
2020/01/19 00:14:48;;;;;;;12.1;9.200001;;;;;;;1.34;92.21973;96174.05;;;;
2020/01/19 00:15:52;;;;;;;13.95;9.900001;;;;;;;1.39;92.44043;96171.25;;;;
2020/01/19 00:16:55;;;;;;;13.95;9.900001;;;;;;;1.39;92.44043;96171.25;;;;
2020/01/19 00:17:55;;;;;;;13.95;9.900001;;;;;;;1.39;92.44043;96171.25;;;;
2020/01/19 00:18:56;;;;;;;13.95;9.900001;;;;;;;1.39;92.44043;96171.25;;;;
2020/01/19 00:19:56;;;;;;;13.95;9.900001;;;;;;;1.39;92.44043;96171.25;;;;
2020/01/19 00:20:57;;;;;;;13.95;9.900001;;;;;;;1.39;92.44043;96171.25;;;;
2020/01/19 00:22:04;;;;;;;13.95;9.900001;;;;;;;1.39;92.44043;96171.25;;;;
2020/01/19 00:23:04;;;;;;;13.95;9.900001;;;;;;;1.39;92.44043;96171.25;;;;
2020/01/19 00:24:05;;;;;;;13.95;9.900001;;;;;;;1.39;92.44043;96171.25;;;;
2020/01/19 00:25:05;;;;;;;13.95;9.900001;;;;;;;1.39;92.44043;96171.25;;;;
2020/01/19 00:26:09;;;;;;;13.95;9.900001;;;;;;;1.39;92.44043;96171.25;;;;
2020/01/19 00:27:09;;;;;;;12.15;9.199999;;;;;;;1.38;92.35547;96173.6;;;;
2020/01/19 00:28:10;;;;;;;12.15;9.199999;;;;;;;1.38;92.35547;96173.6;;;;
2020/01/19 00:29:10;;;;;;;12.15;9.199999;;;;;;;1.38;92.35547;96173.6;;;;
2020/01/19 00:30:11;;;;;;;12.15;9.199999;;;;;;;1.38;92.35547;96173.6;;;;
2020/01/19 00:31:24;;;;;;;12.15;9.199999;;;;;;;1.38;92.35547;96173.6;;;;
2020/01/19 00:32:24;;;;;;;12.15;9.199999;;;;;;;1.38;92.35547;96173.6;;;;
2020/01/19 00:33:25;;;;;;;12.15;9.199999;;;;;;;1.38;92.35547;96173.6;;;;
2020/01/19 00:34:25;;;;;;;12.15;9.199999;;;;;;;1.38;92.35547;96173.6;;;;
2020/01/19 00:35:26;;;;;;;12.15;9.199999;;;;;;;1.38;92.35547;96173.6;;;;
2020/01/19 00:36:27;;;;;;;12.15;9.199999;;;;;;;1.38;92.35547;96173.6;;;;
2020/01/19 00:37:27;;;;;;;12.45;9.1;;;;;;;1.41;92.58887;96190.13;;;;
2020/01/19 00:38:28;;;;;;;12.45;9.1;;;;;;;1.41;92.58887;96190.13;;;;
2020/01/19 00:39:28;;;;;;;12.45;9.1;;;;;;;1.41;92.58887;96190.13;;;;
2020/01/19 00:40:34;;;;;;;12.45;9.1;;;;;;;1.41;92.58887;96190.13;;;;
2020/01/19 00:41:37;;;;;;;12.45;9.1;;;;;;;1.41;92.58887;96190.13;;;;
2020/01/19 00:42:38;;;;;;;12.45;9.1;;;;;;;1.41;92.58887;96190.13;;;;
2020/01/19 00:43:38;;;;;;;12.45;9.1;;;;;;;1.41;92.58887;96190.13;;;;
2020/01/19 00:44:39;;;;;;;12.45;9.1;;;;;;;1.41;92.58887;96190.13;;;;
2020/01/19 00:45:39;;;;;;;12.45;9.1;;;;;;;1.41;92.58887;96190.13;;;;
2020/01/19 00:46:40;;;;;;;12.45;9.1;;;;;;;1.41;92.58887;96190.13;;;;
2020/01/19 00:47:40;;;;;;;13.65;9.650002;;;;;;;1.36;92.65137;96198.19;;;;
2020/01/19 00:48:43;;;;;;;13.65;9.650002;;;;;;;1.36;92.65137;96198.19;;;;
2020/01/19 00:49:43;;;;;;;13.65;9.650002;;;;;;;1.36;92.65137;96198.19;;;;
2020/01/19 00:50:44;;;;;;;13.65;9.650002;;;;;;;1.36;92.65137;96198.19;;;;
2020/01/19 00:51:44;;;;;;;13.65;9.650002;;;;;;;1.36;92.65137;96198.19;;;;
2020/01/19 00:52:44;;;;;;;13.65;9.650002;;;;;;;1.36;92.65137;96198.19;;;;
2020/01/19 00:53:45;;;;;;;13.65;9.650002;;;;;;;1.36;92.65137;96198.19;;;;
2020/01/19 00:54:46;;;;;;;13.65;9.650002;;;;;;;1.36;92.65137;96198.19;;;;
2020/01/19 00:55:46;;;;;;;13.65;9.650002;;;;;;;1.36;92.65137;96198.19;;;;
2020/01/19 00:56:47;;;;;;;13.65;9.650002;;;;;;;1.36;92.65137;96198.19;;;;
2020/01/19 00:57:47;;;;;;;13.65;9.650002;;;;;;;1.36;92.65137;96198.19;;;;
2020/01/19 00:58:48;;;;;;;12.15;9.550001;;;;;;;1.38;92.82227;96204.67;;;;
2020/01/19 00:59:48;;;;;;;12.15;9.550001;;;;;;;1.38;92.82227;96204.67;;;;
2020/01/19 01:00:49;;;;;;;12.15;9.550001;;;;;;;1.38;92.82227;96204.67;;;;
2020/01/19 01:02:05;;;;;;;12.15;9.550001;;;;;;;1.38;92.82227;96204.67;;;;
2020/01/19 01:03:06;;;;;;;12.15;9.550001;;;;;;;1.38;92.82227;96204.67;;;;
2020/01/19 01:04:11;;;;;;;12.15;9.550001;;;;;;;1.38;92.82227;96204.67;;;;
2020/01/19 01:05:13;;;;;;;12.15;9.550001;;;;;;;1.38;92.82227;96204.67;;;;
2020/01/19 01:06:36;;;;;;;12.15;9.550001;;;;;;;1.38;92.82227;96204.67;;;;
2020/01/19 01:07:54;;;;;;;12.15;9.550001;;;;;;;1.38;92.82227;96204.67;;;;
2020/01/19 01:08:55;;;;;;;13.8;10.15;;;;;;;1.29;92.79297;96208.26;;;;
2020/01/19 01:09:55;;;;;;;13.8;10.15;;;;;;;1.29;92.79297;96208.26;;;;
2020/01/19 01:10:56;;;;;;;13.8;10.15;;;;;;;1.29;92.79297;96208.26;;;;
2020/01/19 01:12:02;;;;;;;13.8;10.15;;;;;;;1.29;92.79297;96208.26;;;;
2020/01/19 01:13:06;;;;;;;13.8;10.15;;;;;;;1.29;92.79297;96208.26;;;;
2020/01/19 01:14:07;;;;;;;13.8;10.15;;;;;;;1.29;92.79297;96208.26;;;;
2020/01/19 01:15:07;;;;;;;13.8;10.15;;;;;;;1.29;92.79297;96208.26;;;;
2020/01/19 01:16:39;;;;;;;13.8;10.15;;;;;;;1.29;92.79297;96208.26;;;;
2020/01/19 01:17:40;;;;;;;13.8;10.15;;;;;;;1.29;92.79297;96208.26;;;;
2020/01/19 01:18:40;;;;;;;13.8;10.15;;;;;;;1.29;92.79297;96208.26;;;;
2020/01/19 01:19:41;;;;;;;17.2;11;;;;;;;1.24;92.9082;96211.38;;;;
2020/01/19 01:20:41;;;;;;;17.2;11;;;;;;;1.24;92.9082;96211.38;;;;
2020/01/19 01:21:43;;;;;;;17.2;11;;;;;;;1.24;92.9082;96211.38;;;;
2020/01/19 01:22:43;;;;;;;17.2;11;;;;;;;1.24;92.9082;96211.38;;;;
2020/01/19 01:23:44;;;;;;;17.2;11;;;;;;;1.24;92.9082;96211.38;;;;
2020/01/19 01:24:47;;;;;;;17.2;11;;;;;;;1.24;92.9082;96211.38;;;;
2020/01/19 01:25:48;;;;;;;17.2;11;;;;;;;1.24;92.9082;96211.38;;;;
2020/01/19 01:26:48;;;;;;;17.2;11;;;;;;;1.24;92.9082;96211.38;;;;
2020/01/19 01:27:49;;;;;;;17.2;11;;;;;;;1.24;92.9082;96211.38;;;;
2020/01/19 01:28:49;;;;;;;17.2;11;;;;;;;1.24;92.9082;96211.38;;;;
2020/01/19 01:29:51;;;;;;;17.2;11;;;;;;;1.24;92.9082;96211.38;;;;
2020/01/19 01:30:52;;;;;;;15.4;10.8;;;;;;;1.09;92.94629;96211.21;;;;
2020/01/19 01:31:52;;;;;;;15.4;10.8;;;;;;;1.09;92.94629;96211.21;;;;
2020/01/19 01:32:53;;;;;;;15.4;10.8;;;;;;;1.09;92.94629;96211.21;;;;
2020/01/19 01:33:53;;;;;;;15.4;10.8;;;;;;;1.09;92.94629;96211.21;;;;
2020/01/19 01:34:54;;;;;;;15.4;10.8;;;;;;;1.09;92.94629;96211.21;;;;
2020/01/19 01:35:54;;;;;;;15.4;10.8;;;;;;;1.09;92.94629;96211.21;;;;
2020/01/19 01:36:55;;;;;;;15.4;10.8;;;;;;;1.09;92.94629;96211.21;;;;
2020/01/19 01:37:55;;;;;;;15.4;10.8;;;;;;;1.09;92.94629;96211.21;;;;
2020/01/19 01:38:56;;;;;;;15.4;10.8;;;;;;;1.09;92.94629;96211.21;;;;
2020/01/19 01:39:56;;;;;;;15.4;10.8;;;;;;;1.09;92.94629;96211.21;;;;
2020/01/19 01:40:57;;;;;;;16.15;11.4;;;;;;;1.09;93.26855;96217.44;;;;
2020/01/19 01:41:57;;;;;;;16.15;11.4;;;;;;;1.09;93.26855;96217.44;;;;
2020/01/19 01:42:58;;;;;;;16.15;11.4;;;;;;;1.09;93.26855;96217.44;;;;
2020/01/19 01:43:58;;;;;;;16.15;11.4;;;;;;;1.09;93.26855;96217.44;;;;
2020/01/19 01:44:59;;;;;;;16.15;11.4;;;;;;;1.09;93.26855;96217.44;;;;
2020/01/19 01:45:59;;;;;;;16.15;11.4;;;;;;;1.09;93.26855;96217.44;;;;
2020/01/19 01:47:00;;;;;;;16.15;11.4;;;;;;;1.09;93.26855;96217.44;;;;
2020/01/19 01:48:00;;;;;;;16.15;11.4;;;;;;;1.09;93.26855;96217.44;;;;
2020/01/19 01:49:01;;;;;;;16.15;11.4;;;;;;;1.09;93.26855;96217.44;;;;
2020/01/19 01:50:01;;;;;;;16.15;11.4;;;;;;;1.09;93.26855;96217.44;;;;
2020/01/19 01:51:02;;;;;;;16.15;11.4;;;;;;;1.09;93.26855;96217.44;;;;
2020/01/19 01:52:02;;;;;;;15.45;10.65;;;;;;;1.13;93.38281;96218.31;;;;
2020/01/19 01:53:04;;;;;;;15.45;10.65;;;;;;;1.13;93.38281;96218.31;;;;
2020/01/19 01:54:04;;;;;;;15.45;10.65;;;;;;;1.13;93.38281;96218.31;;;;
2020/01/19 01:55:05;;;;;;;15.45;10.65;;;;;;;1.13;93.38281;96218.31;;;;
2020/01/19 01:56:05;;;;;;;15.45;10.65;;;;;;;1.13;93.38281;96218.31;;;;
2020/01/19 01:57:06;;;;;;;15.45;10.65;;;;;;;1.13;93.38281;96218.31;;;;
2020/01/19 01:58:06;;;;;;;15.45;10.65;;;;;;;1.13;93.38281;96218.31;;;;
2020/01/19 01:59:07;;;;;;;15.45;10.65;;;;;;;1.13;93.38281;96218.31;;;;
2020/01/19 02:00:08;;;;;;;15.45;10.65;;;;;;;1.13;93.38281;96218.31;;;;
2020/01/19 02:01:09;;;;;;;15.45;10.65;;;;;;;1.13;93.38281;96218.31;;;;
2020/01/19 02:04:00;;;;;;;14.75;9.949999;;;;;;;1.25;93.51172;96232.17;;;;
2020/01/19 02:05:03;;;;;;;14.75;9.949999;;;;;;;1.25;93.51172;96232.17;;;;
2020/01/19 02:06:13;;;;;;;14.75;9.949999;;;;;;;1.25;93.51172;96232.17;;;;
2020/01/19 02:07:32;;;;;;;14.75;9.949999;;;;;;;1.25;93.51172;96232.17;;;;
2020/01/19 02:09:11;;;;;;;14.75;9.949999;;;;;;;1.25;93.51172;96232.17;;;;
2020/01/19 02:11:07;;;;;;;14.75;9.949999;;;;;;;1.25;93.51172;96232.17;;;;
2020/01/19 02:17:24;;;;;;;13;9.35;;;;;;;1.26;93.33691;96226.79;;;;
2020/01/19 02:18:25;;;;;;;13;9.35;;;;;;;1.26;93.33691;96226.79;;;;
2020/01/19 02:19:26;;;;;;;13;9.35;;;;;;;1.26;93.33691;96226.79;;;;
2020/01/19 02:20:26;;;;;;;13;9.35;;;;;;;1.26;93.33691;96226.79;;;;
2020/01/19 02:21:32;;;;;;;13;9.35;;;;;;;1.26;93.33691;96226.79;;;;
2020/01/19 02:22:33;;;;;;;13;9.35;;;;;;;1.26;93.33691;96226.79;;;;
2020/01/19 02:23:33;;;;;;;17.1;9.85;;;;;;;1.31;93.53613;96239.97;;;;
2020/01/19 02:24:34;;;;;;;17.1;9.85;;;;;;;1.31;93.53613;96239.97;;;;
2020/01/19 02:25:35;;;;;;;17.1;9.85;;;;;;;1.31;93.53613;96239.97;;;;
2020/01/19 02:26:35;;;;;;;17.1;9.85;;;;;;;1.31;93.53613;96239.97;;;;
2020/01/19 02:27:35;;;;;;;17.1;9.85;;;;;;;1.31;93.53613;96239.97;;;;
2020/01/19 02:28:36;;;;;;;17.1;9.85;;;;;;;1.31;93.53613;96239.97;;;;
2020/01/19 02:29:36;;;;;;;17.1;9.85;;;;;;;1.31;93.53613;96239.97;;;;
2020/01/19 02:30:37;;;;;;;17.1;9.85;;;;;;;1.31;93.53613;96239.97;;;;
2020/01/19 02:31:37;;;;;;;17.1;9.85;;;;;;;1.31;93.53613;96239.97;;;;
2020/01/19 02:32:38;;;;;;;17.1;9.85;;;;;;;1.31;93.53613;96239.97;;;;
2020/01/19 02:33:38;;;;;;;14.35;9.950001;;;;;;;1.32;93.67383;96248.27;;;;
2020/01/19 02:34:39;;;;;;;14.35;9.950001;;;;;;;1.32;93.67383;96248.27;;;;
2020/01/19 02:35:39;;;;;;;14.35;9.950001;;;;;;;1.32;93.67383;96248.27;;;;
2020/01/19 02:36:39;;;;;;;14.35;9.950001;;;;;;;1.32;93.67383;96248.27;;;;
2020/01/19 02:37:40;;;;;;;14.35;9.950001;;;;;;;1.32;93.67383;96248.27;;;;
2020/01/19 02:38:40;;;;;;;14.35;9.950001;;;;;;;1.32;93.67383;96248.27;;;;
2020/01/19 02:39:41;;;;;;;14.35;9.950001;;;;;;;1.32;93.67383;96248.27;;;;
2020/01/19 02:40:41;;;;;;;14.35;9.950001;;;;;;;1.32;93.67383;96248.27;;;;
2020/01/19 02:41:41;;;;;;;14.35;9.950001;;;;;;;1.32;93.67383;96248.27;;;;
2020/01/19 02:42:42;;;;;;;14.35;9.950001;;;;;;;1.32;93.67383;96248.27;;;;
2020/01/19 02:43:42;;;;;;;14.35;9.950001;;;;;;;1.32;93.67383;96248.27;;;;
2020/01/19 02:44:43;;;;;;;16.9;11.05;;;;;;;1.33;93.66602;96238.89;;;;
2020/01/19 02:45:43;;;;;;;16.9;11.05;;;;;;;1.33;93.66602;96238.89;;;;
2020/01/19 02:46:44;;;;;;;16.9;11.05;;;;;;;1.33;93.66602;96238.89;;;;
2020/01/19 02:47:44;;;;;;;16.9;11.05;;;;;;;1.33;93.66602;96238.89;;;;
2020/01/19 02:48:45;;;;;;;16.9;11.05;;;;;;;1.33;93.66602;96238.89;;;;
2020/01/19 02:49:45;;;;;;;16.9;11.05;;;;;;;1.33;93.66602;96238.89;;;;
2020/01/19 02:50:45;;;;;;;16.9;11.05;;;;;;;1.33;93.66602;96238.89;;;;
2020/01/19 02:51:46;;;;;;;16.9;11.05;;;;;;;1.33;93.66602;96238.89;;;;
2020/01/19 02:52:47;;;;;;;16.9;11.05;;;;;;;1.33;93.66602;96238.89;;;;
2020/01/19 02:53:47;;;;;;;16.9;11.05;;;;;;;1.33;93.66602;96238.89;;;;
2020/01/19 02:54:48;;;;;;;16.9;11.05;;;;;;;1.33;93.66602;96238.89;;;;
2020/01/19 02:55:48;;;;;;;19.75;12.7;;;;;;;1.22;93.76758;96245.28;;;;
2020/01/19 02:56:49;;;;;;;19.75;12.7;;;;;;;1.22;93.76758;96245.28;;;;
2020/01/19 02:57:49;;;;;;;19.75;12.7;;;;;;;1.22;93.76758;96245.28;;;;
2020/01/19 02:58:49;;;;;;;19.75;12.7;;;;;;;1.22;93.76758;96245.28;;;;
2020/01/19 02:59:50;;;;;;;19.75;12.7;;;;;;;1.22;93.76758;96245.28;;;;
2020/01/19 03:00:50;;;;;;;19.75;12.7;;;;;;;1.22;93.76758;96245.28;;;;
2020/01/19 03:01:51;;;;;;;19.75;12.7;;;;;;;1.22;93.76758;96245.28;;;;
2020/01/19 03:02:51;;;;;;;19.75;12.7;;;;;;;1.22;93.76758;96245.28;;;;
2020/01/19 03:03:52;;;;;;;19.75;12.7;;;;;;;1.22;93.76758;96245.28;;;;
2020/01/19 03:04:52;;;;;;;19.75;12.7;;;;;;;1.22;93.76758;96245.28;;;;
2020/01/19 03:05:52;;;;;;;21.75;14.05;;;;;;;1.27;93.98633;96255.47;;;;
2020/01/19 03:06:53;;;;;;;21.75;14.05;;;;;;;1.27;93.98633;96255.47;;;;
2020/01/19 03:07:53;;;;;;;21.75;14.05;;;;;;;1.27;93.98633;96255.47;;;;
2020/01/19 03:08:54;;;;;;;21.75;14.05;;;;;;;1.27;93.98633;96255.47;;;;
2020/01/19 03:09:54;;;;;;;21.75;14.05;;;;;;;1.27;93.98633;96255.47;;;;
2020/01/19 03:10:55;;;;;;;21.75;14.05;;;;;;;1.27;93.98633;96255.47;;;;
2020/01/19 03:11:55;;;;;;;21.75;14.05;;;;;;;1.27;93.98633;96255.47;;;;
2020/01/19 03:12:56;;;;;;;21.75;14.05;;;;;;;1.27;93.98633;96255.47;;;;
2020/01/19 03:13:56;;;;;;;21.75;14.05;;;;;;;1.27;93.98633;96255.47;;;;
2020/01/19 03:14:56;;;;;;;21.75;14.05;;;;;;;1.27;93.98633;96255.47;;;;
2020/01/19 03:15:57;;;;;;;21.75;14.05;;;;;;;1.27;93.98633;96255.47;;;;
2020/01/19 03:16:57;;;;;;;23.2;15.5;;;;;;;1.23;93.98633;96269.15;;;;
2020/01/19 03:17:58;;;;;;;23.2;15.5;;;;;;;1.23;93.98633;96269.15;;;;
2020/01/19 03:18:58;;;;;;;23.2;15.5;;;;;;;1.23;93.98633;96269.15;;;;
2020/01/19 03:19:59;;;;;;;23.2;15.5;;;;;;;1.23;93.98633;96269.15;;;;
2020/01/19 03:20:59;;;;;;;23.2;15.5;;;;;;;1.23;93.98633;96269.15;;;;
2020/01/19 03:22:00;;;;;;;23.2;15.5;;;;;;;1.23;93.98633;96269.15;;;;
2020/01/19 03:23:00;;;;;;;23.2;15.5;;;;;;;1.23;93.98633;96269.15;;;;
2020/01/19 03:24:01;;;;;;;23.2;15.5;;;;;;;1.23;93.98633;96269.15;;;;
2020/01/19 03:25:01;;;;;;;23.2;15.5;;;;;;;1.23;93.98633;96269.15;;;;
2020/01/19 03:26:02;;;;;;;23.2;15.5;;;;;;;1.23;93.98633;96269.15;;;;
2020/01/19 03:27:02;;;;;;;25.8;16.5;;;;;;;1.3;94.05273;96279.99;;;;
2020/01/19 03:28:03;;;;;;;25.8;16.5;;;;;;;1.3;94.05273;96279.99;;;;
2020/01/19 03:29:03;;;;;;;25.8;16.5;;;;;;;1.3;94.05273;96279.99;;;;
2020/01/19 03:30:03;;;;;;;25.8;16.5;;;;;;;1.3;94.05273;96279.99;;;;
2020/01/19 03:31:04;;;;;;;25.8;16.5;;;;;;;1.3;94.05273;96279.99;;;;
2020/01/19 03:32:05;;;;;;;25.8;16.5;;;;;;;1.3;94.05273;96279.99;;;;
2020/01/19 03:33:05;;;;;;;25.8;16.5;;;;;;;1.3;94.05273;96279.99;;;;
2020/01/19 03:34:05;;;;;;;25.8;16.5;;;;;;;1.3;94.05273;96279.99;;;;
2020/01/19 03:35:06;;;;;;;25.8;16.5;;;;;;;1.3;94.05273;96279.99;;;;
2020/01/19 03:36:06;;;;;;;25.8;16.5;;;;;;;1.3;94.05273;96279.99;;;;
2020/01/19 03:37:07;;;;;;;25.8;16.5;;;;;;;1.3;94.05273;96279.99;;;;
2020/01/19 03:38:07;;;;;;;24.3;16.5;;;;;;;1.28;93.99902;96292.13;;;;
2020/01/19 03:39:08;;;;;;;24.3;16.5;;;;;;;1.28;93.99902;96292.13;;;;
2020/01/19 03:40:08;;;;;;;24.3;16.5;;;;;;;1.28;93.99902;96292.13;;;;
2020/01/19 03:41:09;;;;;;;24.3;16.5;;;;;;;1.28;93.99902;96292.13;;;;
2020/01/19 03:42:09;;;;;;;24.3;16.5;;;;;;;1.28;93.99902;96292.13;;;;
2020/01/19 03:43:09;;;;;;;24.3;16.5;;;;;;;1.28;93.99902;96292.13;;;;
2020/01/19 03:44:10;;;;;;;24.3;16.5;;;;;;;1.28;93.99902;96292.13;;;;
2020/01/19 03:45:10;;;;;;;24.3;16.5;;;;;;;1.28;93.99902;96292.13;;;;
2020/01/19 03:46:11;;;;;;;24.3;16.5;;;;;;;1.28;93.99902;96292.13;;;;
2020/01/19 03:47:11;;;;;;;24.3;16.5;;;;;;;1.28;93.99902;96292.13;;;;
2020/01/19 03:48:12;;;;;;;28.05;18.05;;;;;;;1.3;94.15723;96285.74;;;;
2020/01/19 03:49:14;;;;;;;28.05;18.05;;;;;;;1.3;94.15723;96285.74;;;;
2020/01/19 03:50:15;;;;;;;28.05;18.05;;;;;;;1.3;94.15723;96285.74;;;;
2020/01/19 03:51:15;;;;;;;28.05;18.05;;;;;;;1.3;94.15723;96285.74;;;;
2020/01/19 03:52:19;;;;;;;28.05;18.05;;;;;;;1.3;94.15723;96285.74;;;;
2020/01/19 03:53:21;;;;;;;28.05;18.05;;;;;;;1.3;94.15723;96285.74;;;;
2020/01/19 03:54:44;;;;;;;28.05;18.05;;;;;;;1.3;94.15723;96285.74;;;;
2020/01/19 03:55:49;;;;;;;28.05;18.05;;;;;;;1.3;94.15723;96285.74;;;;
2020/01/19 03:57:12;;;;;;;28.05;18.05;;;;;;;1.3;94.15723;96285.74;;;;
2020/01/19 04:02:17;;;;;;;26.25;16.95;;;;;;;1.26;94.19043;96287.97;;;;
2020/01/19 04:03:19;;;;;;;26.25;16.95;;;;;;;1.26;94.19043;96287.97;;;;
2020/01/19 04:04:25;;;;;;;26.25;16.95;;;;;;;1.26;94.19043;96287.97;;;;
2020/01/19 04:05:26;;;;;;;26.25;16.95;;;;;;;1.26;94.19043;96287.97;;;;
2020/01/19 04:06:26;;;;;;;26.25;16.95;;;;;;;1.26;94.19043;96287.97;;;;
2020/01/19 04:07:27;;;;;;;26.25;16.95;;;;;;;1.26;94.19043;96287.97;;;;
2020/01/19 04:08:27;;;;;;;26.25;16.95;;;;;;;1.26;94.19043;96287.97;;;;
2020/01/19 04:09:28;;;;;;;26.6;18;;;;;;;1.28;94.44434;96309.93;;;;
2020/01/19 04:10:28;;;;;;;26.6;18;;;;;;;1.28;94.44434;96309.93;;;;
2020/01/19 04:11:29;;;;;;;26.6;18;;;;;;;1.28;94.44434;96309.93;;;;
2020/01/19 04:12:29;;;;;;;26.6;18;;;;;;;1.28;94.44434;96309.93;;;;
2020/01/19 04:13:30;;;;;;;26.6;18;;;;;;;1.28;94.44434;96309.93;;;;
2020/01/19 04:14:30;;;;;;;26.6;18;;;;;;;1.28;94.44434;96309.93;;;;
2020/01/19 04:15:31;;;;;;;26.6;18;;;;;;;1.28;94.44434;96309.93;;;;
2020/01/19 04:16:31;;;;;;;26.6;18;;;;;;;1.28;94.44434;96309.93;;;;
2020/01/19 04:17:31;;;;;;;26.6;18;;;;;;;1.28;94.44434;96309.93;;;;
2020/01/19 04:18:32;;;;;;;26.6;18;;;;;;;1.28;94.44434;96309.93;;;;
2020/01/19 04:19:32;;;;;;;26.6;18;;;;;;;1.28;94.44434;96309.93;;;;
2020/01/19 04:20:33;;;;;;;28.05;18.3;;;;;;;1.22;94.29883;96306.06;;;;
2020/01/19 04:21:33;;;;;;;28.05;18.3;;;;;;;1.22;94.29883;96306.06;;;;
2020/01/19 04:22:34;;;;;;;28.05;18.3;;;;;;;1.22;94.29883;96306.06;;;;
2020/01/19 04:23:34;;;;;;;28.05;18.3;;;;;;;1.22;94.29883;96306.06;;;;
2020/01/19 04:24:35;;;;;;;28.05;18.3;;;;;;;1.22;94.29883;96306.06;;;;
2020/01/19 04:25:35;;;;;;;28.05;18.3;;;;;;;1.22;94.29883;96306.06;;;;
2020/01/19 04:26:36;;;;;;;28.05;18.3;;;;;;;1.22;94.29883;96306.06;;;;
2020/01/19 04:27:36;;;;;;;28.05;18.3;;;;;;;1.22;94.29883;96306.06;;;;
2020/01/19 04:28:37;;;;;;;28.05;18.3;;;;;;;1.22;94.29883;96306.06;;;;
2020/01/19 04:29:37;;;;;;;28.05;18.3;;;;;;;1.22;94.29883;96306.06;;;;
2020/01/19 04:30:37;;;;;;;25.7;17.2;;;;;;;1.19;94.40527;96314.75;;;;
2020/01/19 04:31:38;;;;;;;25.7;17.2;;;;;;;1.19;94.40527;96314.75;;;;
2020/01/19 04:32:38;;;;;;;25.7;17.2;;;;;;;1.19;94.40527;96314.75;;;;
2020/01/19 04:33:39;;;;;;;25.7;17.2;;;;;;;1.19;94.40527;96314.75;;;;
2020/01/19 04:34:39;;;;;;;25.7;17.2;;;;;;;1.19;94.40527;96314.75;;;;
2020/01/19 04:35:40;;;;;;;25.7;17.2;;;;;;;1.19;94.40527;96314.75;;;;
2020/01/19 04:36:40;;;;;;;25.7;17.2;;;;;;;1.19;94.40527;96314.75;;;;
2020/01/19 04:37:41;;;;;;;25.7;17.2;;;;;;;1.19;94.40527;96314.75;;;;
2020/01/19 04:38:41;;;;;;;25.7;17.2;;;;;;;1.19;94.40527;96314.75;;;;
2020/01/19 04:39:41;;;;;;;25.7;17.2;;;;;;;1.19;94.40527;96314.75;;;;
2020/01/19 04:40:42;;;;;;;25.7;17.2;;;;;;;1.19;94.40527;96314.75;;;;
2020/01/19 04:41:42;;;;;;;26.65;17.75;;;;;;;0.99;94.35059;96328.77;;;;
2020/01/19 04:42:43;;;;;;;26.65;17.75;;;;;;;0.99;94.35059;96328.77;;;;
2020/01/19 04:43:44;;;;;;;26.65;17.75;;;;;;;0.99;94.35059;96328.77;;;;
2020/01/19 04:44:46;;;;;;;26.65;17.75;;;;;;;0.99;94.35059;96328.77;;;;
2020/01/19 04:46:11;;;;;;;26.65;17.75;;;;;;;0.99;94.35059;96328.77;;;;
2020/01/19 04:47:23;;;;;;;26.65;17.75;;;;;;;0.99;94.35059;96328.77;;;;
2020/01/19 04:49:38;;;;;;;26.65;17.75;;;;;;;0.99;94.35059;96328.77;;;;
2020/01/19 04:50:44;;;;;;;26.65;17.75;;;;;;;0.99;94.35059;96328.77;;;;
2020/01/19 04:51:51;;;;;;;30.2;18.75;;;;;;;0.83;94.75195;96339.23;;;;
2020/01/19 04:53:13;;;;;;;30.2;18.75;;;;;;;0.83;94.75195;96339.23;;;;
2020/01/19 04:59:11;;;;;;;30.2;18.75;;;;;;;0.83;94.75195;96339.23;;;;
2020/01/19 05:00:12;;;;;;;30.2;18.75;;;;;;;0.83;94.75195;96339.23;;;;
2020/01/19 05:01:12;;;;;;;30.2;18.75;;;;;;;0.83;94.75195;96339.23;;;;
2020/01/19 05:02:13;;;;;;;30.15;19.05;;;;;;;0.74;95.02441;96342.31;;;;
2020/01/19 05:03:13;;;;;;;30.15;19.05;;;;;;;0.74;95.02441;96342.31;;;;
2020/01/19 05:04:13;;;;;;;30.15;19.05;;;;;;;0.74;95.02441;96342.31;;;;
2020/01/19 05:05:14;;;;;;;30.15;19.05;;;;;;;0.74;95.02441;96342.31;;;;
2020/01/19 05:06:14;;;;;;;30.15;19.05;;;;;;;0.74;95.02441;96342.31;;;;
2020/01/19 05:07:15;;;;;;;30.15;19.05;;;;;;;0.74;95.02441;96342.31;;;;
2020/01/19 05:08:15;;;;;;;30.15;19.05;;;;;;;0.74;95.02441;96342.31;;;;
2020/01/19 05:09:16;;;;;;;30.15;19.05;;;;;;;0.74;95.02441;96342.31;;;;
2020/01/19 05:10:16;;;;;;;30.15;19.05;;;;;;;0.74;95.02441;96342.31;;;;
2020/01/19 05:11:17;;;;;;;30.15;19.05;;;;;;;0.74;95.02441;96342.31;;;;
2020/01/19 05:12:17;;;;;;;30.15;19.05;;;;;;;0.74;95.02441;96342.31;;;;
2020/01/19 05:13:18;;;;;;;29.05;18.2;;;;;;;0.66;95.22363;96356.86;;;;
2020/01/19 05:14:18;;;;;;;29.05;18.2;;;;;;;0.66;95.22363;96356.86;;;;
2020/01/19 05:15:19;;;;;;;29.05;18.2;;;;;;;0.66;95.22363;96356.86;;;;
2020/01/19 05:16:19;;;;;;;29.05;18.2;;;;;;;0.66;95.22363;96356.86;;;;
2020/01/19 05:17:19;;;;;;;29.05;18.2;;;;;;;0.66;95.22363;96356.86;;;;
2020/01/19 05:18:20;;;;;;;29.05;18.2;;;;;;;0.66;95.22363;96356.86;;;;
2020/01/19 05:19:20;;;;;;;29.05;18.2;;;;;;;0.66;95.22363;96356.86;;;;
2020/01/19 05:20:21;;;;;;;29.05;18.2;;;;;;;0.66;95.22363;96356.86;;;;
2020/01/19 05:21:21;;;;;;;29.05;18.2;;;;;;;0.66;95.22363;96356.86;;;;
2020/01/19 05:22:22;;;;;;;29.05;18.2;;;;;;;0.66;95.22363;96356.86;;;;
2020/01/19 05:23:22;;;;;;;29.05;18.2;;;;;;;0.66;95.22363;96356.86;;;;
2020/01/19 05:24:23;;;;;;;34.7;20.8;;;;;;;0.46;95.5;96361.51;;;;
2020/01/19 05:25:23;;;;;;;34.7;20.8;;;;;;;0.46;95.5;96361.51;;;;
2020/01/19 05:26:23;;;;;;;34.7;20.8;;;;;;;0.46;95.5;96361.51;;;;
2020/01/19 05:27:31;;;;;;;34.7;20.8;;;;;;;0.46;95.5;96361.51;;;;
2020/01/19 05:28:55;;;;;;;34.7;20.8;;;;;;;0.46;95.5;96361.51;;;;
2020/01/19 05:29:57;;;;;;;34.7;20.8;;;;;;;0.46;95.5;96361.51;;;;
2020/01/19 05:31:05;;;;;;;34.7;20.8;;;;;;;0.46;95.5;96361.51;;;;
2020/01/19 05:35:42;;;;;;;36.55;21.25;;;;;;;0.52;95.72168;96373.79;;;;
2020/01/19 05:36:48;;;;;;;36.55;21.25;;;;;;;0.52;95.72168;96373.79;;;;
2020/01/19 05:37:48;;;;;;;36.55;21.25;;;;;;;0.52;95.72168;96373.79;;;;
2020/01/19 05:38:49;;;;;;;36.55;21.25;;;;;;;0.52;95.72168;96373.79;;;;
2020/01/19 05:39:50;;;;;;;36.55;21.25;;;;;;;0.52;95.72168;96373.79;;;;
2020/01/19 05:40:50;;;;;;;36.55;21.25;;;;;;;0.52;95.72168;96373.79;;;;
2020/01/19 05:41:50;;;;;;;36.55;21.25;;;;;;;0.52;95.72168;96373.79;;;;
2020/01/19 05:42:51;;;;;;;36.55;21.25;;;;;;;0.52;95.72168;96373.79;;;;
2020/01/19 05:43:51;;;;;;;36.55;21.25;;;;;;;0.52;95.72168;96373.79;;;;
2020/01/19 05:44:52;;;;;;;35.15;20.25;;;;;;;0.34;95.54688;96383.43;;;;
2020/01/19 05:45:52;;;;;;;35.15;20.25;;;;;;;0.34;95.54688;96383.43;;;;
2020/01/19 05:46:52;;;;;;;35.15;20.25;;;;;;;0.34;95.54688;96383.43;;;;
2020/01/19 05:47:53;;;;;;;35.15;20.25;;;;;;;0.34;95.54688;96383.43;;;;
2020/01/19 05:48:53;;;;;;;35.15;20.25;;;;;;;0.34;95.54688;96383.43;;;;
2020/01/19 05:49:54;;;;;;;35.15;20.25;;;;;;;0.34;95.54688;96383.43;;;;
2020/01/19 05:50:54;;;;;;;35.15;20.25;;;;;;;0.34;95.54688;96383.43;;;;
2020/01/19 05:51:55;;;;;;;35.15;20.25;;;;;;;0.34;95.54688;96383.43;;;;
2020/01/19 05:52:55;;;;;;;35.15;20.25;;;;;;;0.34;95.54688;96383.43;;;;
2020/01/19 05:53:55;;;;;;;35.15;20.25;;;;;;;0.34;95.54688;96383.43;;;;
2020/01/19 05:54:56;;;;;;;35.15;20.25;;;;;;;0.34;95.54688;96383.43;;;;
2020/01/19 05:55:56;;;;;;;34.65;20.65;;;;;;;0.11;95.71191;96387.92;;;;
2020/01/19 05:56:57;;;;;;;34.65;20.65;;;;;;;0.11;95.71191;96387.92;;;;
2020/01/19 05:57:57;;;;;;;34.65;20.65;;;;;;;0.11;95.71191;96387.92;;;;
2020/01/19 05:58:57;;;;;;;34.65;20.65;;;;;;;0.11;95.71191;96387.92;;;;
2020/01/19 05:59:58;;;;;;;34.65;20.65;;;;;;;0.11;95.71191;96387.92;;;;
2020/01/19 06:00:58;;;;;;;34.65;20.65;;;;;;;0.11;95.71191;96387.92;;;;
2020/01/19 06:01:59;;;;;;;34.65;20.65;;;;;;;0.11;95.71191;96387.92;;;;
2020/01/19 06:02:59;;;;;;;34.65;20.65;;;;;;;0.11;95.71191;96387.92;;;;
2020/01/19 06:04:00;;;;;;;34.65;20.65;;;;;;;0.11;95.71191;96387.92;;;;
2020/01/19 06:05:00;;;;;;;34.65;20.65;;;;;;;0.11;95.71191;96387.92;;;;
2020/01/19 06:06:00;;;;;;;35.85;21.1;;;;;;;-0.09;95.86719;96390.23;;;;
2020/01/19 06:07:01;;;;;;;35.85;21.1;;;;;;;-0.09;95.86719;96390.23;;;;
2020/01/19 06:08:01;;;;;;;35.85;21.1;;;;;;;-0.09;95.86719;96390.23;;;;
2020/01/19 06:09:02;;;;;;;35.85;21.1;;;;;;;-0.09;95.86719;96390.23;;;;
2020/01/19 06:10:03;;;;;;;35.85;21.1;;;;;;;-0.09;95.86719;96390.23;;;;
2020/01/19 06:11:03;;;;;;;35.85;21.1;;;;;;;-0.09;95.86719;96390.23;;;;
2020/01/19 06:12:04;;;;;;;35.85;21.1;;;;;;;-0.09;95.86719;96390.23;;;;
2020/01/19 06:13:04;;;;;;;35.85;21.1;;;;;;;-0.09;95.86719;96390.23;;;;
2020/01/19 06:14:05;;;;;;;35.85;21.1;;;;;;;-0.09;95.86719;96390.23;;;;
2020/01/19 06:15:05;;;;;;;35.85;21.1;;;;;;;-0.09;95.86719;96390.23;;;;
2020/01/19 06:16:05;;;;;;;35.85;21.1;;;;;;;-0.09;95.86719;96390.23;;;;
2020/01/19 06:17:06;;;;;;;37.89999;21.85;;;;;;;-0.18;95.79199;96412.41;;;;
2020/01/19 06:18:06;;;;;;;37.89999;21.85;;;;;;;-0.18;95.79199;96412.41;;;;
2020/01/19 06:19:07;;;;;;;37.89999;21.85;;;;;;;-0.18;95.79199;96412.41;;;;